createdAt,value
2023-05-01T00:01:17.451Z,100692.78
2023-05-01T00:03:45.175Z,100684.00
2023-05-01T00:06:13.093Z,100689.03
2023-05-01T00:08:41.410Z,100683.34
2023-05-01T00:11:09.900Z,100682.47
2023-05-01T00:13:39.404Z,100674.97
2023-05-01T00:16:10.753Z,100673.31
2023-05-01T00:18:38.789Z,100670.56
2023-05-01T00:21:06.742Z,100672.69
2023-05-01T00:23:35.096Z,100665.94
2023-05-01T00:26:02.957Z,100664.31
2023-05-01T00:28:30.733Z,100661.91
2023-05-01T00:31:00.510Z,100654.94
2023-05-01T00:33:28.281Z,100656.22
2023-05-01T00:35:56.051Z,100651.94
2023-05-01T00:38:25.703Z,100647.88
2023-05-01T00:40:53.267Z,100645.31
2023-05-01T00:43:21.276Z,100635.88
2023-05-01T00:45:49.778Z,100638.19
2023-05-01T00:48:19.123Z,100633.91
2023-05-01T00:50:47.363Z,100630.91
2023-05-01T00:53:15.567Z,100628.75
2023-05-01T00:55:43.811Z,100632.69
2023-05-01T00:58:12.199Z,100626.81
2023-05-01T01:00:40.666Z,100625.19
2023-05-01T01:03:08.941Z,100616.56
2023-05-01T01:05:43.625Z,100618.19
2023-05-01T01:08:20.394Z,100621.94
2023-05-01T01:10:55.879Z,100610.09
2023-05-01T01:13:30.769Z,100612.53
2023-05-01T01:19:08.144Z,100608.25
2023-05-01T01:21:42.232Z,100600.44
2023-05-01T01:24:37.206Z,100607.13
2023-05-01T01:27:51.587Z,100600.97
2023-05-01T01:30:35.969Z,100599.91
2023-05-01T01:33:44.771Z,100584.84
2023-05-01T01:36:18.708Z,100589.69
2023-05-01T01:38:48.771Z,100577.84
2023-05-01T01:41:23.854Z,100575.19
2023-05-01T01:44:03.061Z,100574.63
2023-05-01T01:46:38.216Z,100570.34
2023-05-01T01:49:13.493Z,100571.63
2023-05-01T01:51:43.018Z,100571.31
2023-05-01T01:54:14.598Z,100567.00
2023-05-01T01:56:43.394Z,100565.66
2023-05-01T01:59:12.378Z,100562.16
2023-05-01T02:01:43.292Z,100565.31
2023-05-01T02:04:14.740Z,100562.63
2023-05-01T02:06:44.870Z,100554.06
2023-05-01T02:09:13.847Z,100558.81
2023-05-01T02:11:42.527Z,100554.78
2023-05-01T02:14:12.838Z,100552.94
2023-05-01T02:16:42.635Z,100542.16
2023-05-01T02:19:12.835Z,100544.03
2023-05-01T02:21:41.757Z,100544.50
2023-05-01T02:24:10.441Z,100551.47
2023-05-01T02:26:44.116Z,100543.22
2023-05-01T02:29:12.052Z,100543.69
2023-05-01T02:31:39.979Z,100538.59
2023-05-01T02:34:08.355Z,100528.97
2023-05-01T02:36:37.493Z,100533.50
2023-05-01T02:39:05.789Z,100532.38
2023-05-01T02:41:36.630Z,100539.31
2023-05-01T02:44:07.004Z,100530.75
2023-05-01T02:46:38.968Z,100524.56
2023-05-01T02:49:08.137Z,100525.06
2023-05-01T02:51:39.134Z,100525.31
2023-05-01T02:54:08.066Z,100524.75
2023-05-01T02:56:36.685Z,100513.50
2023-05-01T02:59:04.950Z,100513.97
2023-05-01T03:01:32.766Z,100516.66
2023-05-01T03:04:00.671Z,100506.44
2023-05-01T03:06:29.605Z,100501.34
2023-05-01T03:08:58.740Z,100499.72
2023-05-01T03:11:26.921Z,100501.00
2023-05-01T03:13:55.325Z,100497.78
2023-05-01T03:16:23.314Z,100490.22
2023-05-01T03:18:51.154Z,100495.81
2023-05-01T03:21:19.243Z,100494.44
2023-05-01T03:23:47.036Z,100491.19
2023-05-01T03:26:16.206Z,100493.31
2023-05-01T03:28:44.595Z,100488.44
2023-05-01T03:31:12.419Z,100490.53
2023-05-01T03:33:40.442Z,100492.63
2023-05-01T03:36:09.779Z,100499.84
2023-05-01T03:38:37.646Z,100492.06
2023-05-01T03:41:06.008Z,100491.50
2023-05-01T03:43:35.695Z,100488.84
2023-05-01T03:46:03.759Z,100487.44
2023-05-01T03:48:31.609Z,100483.16
2023-05-01T03:51:00.036Z,100479.09
2023-05-01T03:53:27.851Z,100479.34
2023-05-01T03:55:55.645Z,100481.22
2023-05-01T03:58:23.929Z,100480.66
2023-05-01T04:00:53.178Z,100478.00
2023-05-01T04:03:20.983Z,100479.03
2023-05-01T04:05:49.504Z,100478.22
2023-05-01T04:08:17.311Z,100475.00
2023-05-01T04:10:45.086Z,100475.78
2023-05-01T04:13:13.595Z,100472.56
2023-05-01T04:15:45.556Z,100471.50
2023-05-01T04:18:15.380Z,100470.13
2023-05-01T04:20:43.173Z,100469.56
2023-05-01T04:23:10.973Z,100468.75
2023-05-01T04:25:39.384Z,100475.16
2023-05-01T04:28:07.547Z,100477.22
2023-05-01T04:30:35.352Z,100478.28
2023-05-01T04:33:04.253Z,100477.47
2023-05-01T04:35:33.441Z,100479.34
2023-05-01T04:38:01.229Z,100470.75
2023-05-01T04:40:29.548Z,100475.28
2023-05-01T04:42:57.302Z,100483.53
2023-05-01T04:45:25.072Z,100481.91
2023-05-01T04:47:53.439Z,100476.00
2023-05-01T04:50:21.438Z,100480.28
2023-05-01T04:52:50.746Z,100477.59
2023-05-01T04:55:19.103Z,100482.38
2023-05-01T04:57:46.892Z,100481.56
2023-05-01T05:00:15.224Z,100486.09
2023-05-01T05:02:43.761Z,100490.38
2023-05-01T05:05:11.709Z,100477.03
2023-05-01T05:07:39.498Z,100483.19
2023-05-01T05:10:10.041Z,100481.13
2023-05-01T05:12:37.951Z,100488.53
2023-05-01T05:15:06.604Z,100485.06
2023-05-01T05:17:35.001Z,100490.38
2023-05-01T05:20:03.583Z,100490.13
2023-05-01T05:22:31.342Z,100490.38
2023-05-01T05:25:04.560Z,100498.97
2023-05-01T05:27:38.045Z,100502.47
2023-05-01T05:30:08.871Z,100499.53
2023-05-01T05:32:37.474Z,100504.88
2023-05-01T05:35:06.500Z,100497.94
2023-05-01T05:37:35.103Z,100504.88
2023-05-01T05:40:03.081Z,100501.16
2023-05-01T05:42:31.233Z,100501.16
2023-05-01T05:45:00.667Z,100497.22
2023-05-01T05:47:28.707Z,100501.72
2023-05-01T05:49:56.794Z,100500.69
2023-05-01T05:52:25.450Z,100499.63
2023-05-01T05:54:53.228Z,100501.25
2023-05-01T05:57:20.966Z,100503.13
2023-05-01T05:59:49.492Z,100506.34
2023-05-01T06:02:18.916Z,100501.59
2023-05-01T06:04:47.032Z,100501.34
2023-05-01T06:07:15.470Z,100497.63
2023-05-01T06:09:43.515Z,100498.41
2023-05-01T06:12:11.294Z,100502.50
2023-05-01T06:14:39.809Z,100495.75
2023-05-01T06:17:08.077Z,100495.53
2023-05-01T06:19:38.149Z,100499.56
2023-05-01T06:22:07.440Z,100504.69
2023-05-01T06:24:36.618Z,100503.63
2023-05-01T06:27:04.418Z,100500.97
2023-05-01T06:29:32.913Z,100501.78
2023-05-01T06:32:00.744Z,100499.09
2023-05-01T06:34:28.575Z,100503.94
2023-05-01T06:36:58.364Z,100498.13
2023-05-01T06:39:26.364Z,100499.75
2023-05-01T06:41:54.147Z,100503.81
2023-05-01T06:44:22.571Z,100495.81
2023-05-01T06:46:50.616Z,100499.63
2023-05-01T06:49:18.460Z,100503.66
2023-05-01T06:51:46.507Z,100501.56
2023-05-01T06:54:15.781Z,100506.41
2023-05-01T06:56:43.569Z,100503.00
2023-05-01T06:59:11.937Z,100504.19
2023-05-01T07:01:39.832Z,100503.69
2023-05-01T07:04:07.646Z,100505.16
2023-05-01T07:06:36.139Z,100498.03
2023-05-01T07:09:04.092Z,100514.72
2023-05-01T07:11:33.743Z,100509.47
2023-05-01T07:14:01.790Z,100516.78
2023-05-01T07:16:29.603Z,100508.84
2023-05-01T07:18:57.392Z,100506.75
2023-05-01T07:21:25.797Z,100507.09
2023-05-01T07:23:53.561Z,100517.28
2023-05-01T07:26:21.356Z,100512.50
2023-05-01T07:28:51.044Z,100513.06
2023-05-01T07:31:18.876Z,100514.19
2023-05-01T07:33:47.149Z,100515.56
2023-05-01T07:36:15.710Z,100511.00
2023-05-01T07:38:43.468Z,100508.41
2023-05-01T07:41:11.248Z,100514.06
2023-05-01T07:43:39.679Z,100514.16
2023-05-01T07:46:08.891Z,100517.69
2023-05-01T07:48:38.952Z,100517.22
2023-05-01T07:51:07.057Z,100519.41
2023-05-01T07:53:34.896Z,100510.06
2023-05-01T07:56:09.920Z,100516.31
2023-05-01T07:58:38.028Z,100519.56
2023-05-01T08:01:09.735Z,100518.50
2023-05-01T08:03:37.827Z,100515.31
2023-05-01T08:06:06.183Z,100514.75
2023-05-01T08:08:34.667Z,100522.59
2023-05-01T08:11:02.431Z,100521.84
2023-05-01T08:13:30.180Z,100524.25
2023-05-01T08:16:02.921Z,100520.78
2023-05-01T08:18:32.405Z,100520.25
2023-05-01T08:21:00.223Z,100527.84
2023-05-01T08:23:28.608Z,100539.34
2023-05-01T08:25:56.366Z,100535.94
2023-05-01T08:28:24.235Z,100537.53
2023-05-01T08:30:52.443Z,100542.91
2023-05-01T08:33:20.261Z,100535.34
2023-05-01T08:35:49.891Z,100532.72
2023-05-01T08:38:17.959Z,100523.41
2023-05-01T08:40:53.539Z,100532.78
2023-05-01T08:43:22.187Z,100531.50
2023-05-01T08:45:52.215Z,100540.06
2023-05-01T08:48:20.813Z,100532.84
2023-05-01T08:50:51.392Z,100525.44
2023-05-01T08:53:21.240Z,100529.16
2023-05-01T08:55:52.241Z,100535.16
2023-05-01T08:58:20.692Z,100532.03
2023-05-01T09:00:48.848Z,100535.84
2023-05-01T09:03:19.227Z,100527.88
2023-05-01T09:05:47.382Z,100536.25
2023-05-01T09:08:16.635Z,100533.97
2023-05-01T09:10:49.787Z,100534.06
2023-05-01T09:13:17.716Z,100536.47
2023-05-01T09:15:45.667Z,100539.50
2023-05-01T09:18:14.458Z,100538.47
2023-05-01T09:20:42.944Z,100533.16
2023-05-01T09:23:10.982Z,100534.53
2023-05-01T09:25:40.739Z,100533.19
2023-05-01T09:28:08.644Z,100544.50
2023-05-01T09:30:37.975Z,100545.03
2023-05-01T09:33:07.312Z,100549.28
2023-05-01T09:35:49.709Z,100546.09
2023-05-01T09:38:20.295Z,100550.66
2023-05-01T09:40:49.749Z,100549.28
2023-05-01T09:43:27.970Z,100554.63
2023-05-01T09:46:03.755Z,100554.63
2023-05-01T09:48:35.079Z,100556.75
2023-05-01T09:51:21.444Z,100557.53
2023-05-01T09:53:50.202Z,100552.44
2023-05-01T09:56:19.667Z,100559.91
2023-05-01T09:58:47.907Z,100564.47
2023-05-01T10:01:16.296Z,100565.28
2023-05-01T10:03:45.972Z,100556.69
2023-05-01T10:06:13.936Z,100566.88
2023-05-01T10:08:49.575Z,100569.06
2023-05-01T10:11:18.933Z,100566.38
2023-05-01T10:13:46.747Z,100572.88
2023-05-01T10:16:40.006Z,100567.50
2023-05-01T10:19:07.943Z,100566.47
2023-05-01T10:21:36.278Z,100568.38
2023-05-01T10:24:06.367Z,100566.56
2023-05-01T10:26:36.216Z,100570.88
2023-05-01T10:29:05.191Z,100570.38
2023-05-01T10:31:33.697Z,100561.84
2023-05-01T10:34:02.563Z,100566.75
2023-05-01T10:36:35.504Z,100560.41
2023-05-01T10:39:03.905Z,100562.09
2023-05-01T10:42:14.749Z,100564.25
2023-05-01T10:44:47.789Z,100568.06
2023-05-01T10:47:47.096Z,100564.56
2023-05-01T10:50:16.341Z,100574.53
2023-05-01T10:53:18.859Z,100568.09
2023-05-01T10:55:48.411Z,100566.50
2023-05-01T10:58:36.580Z,100570.00
2023-05-01T11:01:34.271Z,100574.56
2023-05-01T11:04:05.527Z,100577.78
2023-05-01T11:06:33.725Z,100566.22
2023-05-01T11:09:02.190Z,100572.94
2023-05-01T11:11:52.005Z,100570.25
2023-05-01T11:14:19.878Z,100569.69
2023-05-01T11:16:49.493Z,100571.88
2023-05-01T11:19:50.916Z,100572.72
2023-05-01T11:22:19.571Z,100574.63
2023-05-01T11:24:48.090Z,100566.84
2023-05-01T11:27:18.308Z,100567.91
2023-05-01T11:29:48.488Z,100567.41
2023-05-01T11:32:20.836Z,100566.91
2023-05-01T11:34:51.094Z,100565.53
2023-05-01T11:37:19.039Z,100560.72
2023-05-01T11:39:53.889Z,100562.34
2023-05-01T11:42:23.458Z,100570.41
2023-05-01T11:45:07.801Z,100562.91
2023-05-01T11:47:37.242Z,100570.16
2023-05-01T11:50:04.998Z,100568.22
2023-05-01T11:52:43.346Z,100556.97
2023-05-01T11:55:11.615Z,100561.78
2023-05-01T11:57:50.070Z,100570.38
2023-05-01T12:00:27.878Z,100564.72
2023-05-01T12:03:06.917Z,100574.06
2023-05-01T12:05:37.081Z,100566.28
2023-05-01T12:08:11.877Z,100568.69
2023-05-01T12:10:41.159Z,100574.91
2023-05-01T12:13:10.744Z,100561.19
2023-05-01T12:15:39.252Z,100564.19
2023-05-01T12:18:08.950Z,100557.19
2023-05-01T12:20:38.657Z,100550.22
2023-05-01T12:23:08.430Z,100558.28
2023-05-01T12:25:36.725Z,100561.53
2023-05-01T12:28:09.726Z,100563.41
2023-05-01T12:30:38.408Z,100562.38
2023-05-01T12:33:15.881Z,100557.03
2023-05-01T12:35:46.571Z,100565.91
2023-05-01T12:38:16.826Z,100568.03
2023-05-01T12:40:54.519Z,100560.81
2023-05-01T12:43:23.768Z,100566.44
2023-05-01T12:45:54.564Z,100561.06
2023-05-01T12:48:24.083Z,100557.06
2023-05-01T12:50:54.868Z,100546.31
2023-05-01T12:53:24.318Z,100549.00
2023-05-01T12:55:53.565Z,100555.97
2023-05-01T12:58:21.786Z,100557.34
2023-05-01T13:00:51.350Z,100547.41
2023-05-01T13:03:23.623Z,100546.31
2023-05-01T13:05:55.032Z,100544.16
2023-05-01T13:08:31.020Z,100563.25
2023-05-01T13:11:00.546Z,100562.16
2023-05-01T13:13:28.941Z,100566.72
2023-05-01T13:16:05.614Z,100559.19
2023-05-01T13:18:34.741Z,100561.88
2023-05-01T13:21:13.177Z,100565.09
2023-05-01T13:23:41.500Z,100566.72
2023-05-01T13:26:11.422Z,100569.41
2023-05-01T13:28:46.704Z,100564.28
2023-05-01T13:31:15.629Z,100575.25
2023-05-01T13:33:44.053Z,100571.53
2023-05-01T13:36:25.379Z,100573.66
2023-05-01T13:38:56.985Z,100577.09
2023-05-01T13:41:27.088Z,100581.16
2023-05-01T13:43:56.757Z,100576.34
2023-05-01T13:46:27.400Z,100572.06
2023-05-01T13:48:56.283Z,100577.19
2023-05-01T13:51:27.837Z,100582.31
2023-05-01T13:53:57.368Z,100572.63
2023-05-01T13:56:24.946Z,100581.25
2023-05-01T13:58:53.478Z,100576.41
2023-05-01T14:01:22.583Z,100583.16
2023-05-01T14:03:50.989Z,100582.34
2023-05-01T14:06:20.965Z,100576.69
2023-05-01T14:08:52.057Z,100580.72
2023-05-01T14:11:21.124Z,100578.28
2023-05-01T14:13:51.437Z,100579.38
2023-05-01T14:16:25.168Z,100575.59
2023-05-01T14:18:56.628Z,100579.66
2023-05-01T14:21:27.491Z,100581.53
2023-05-01T14:23:58.242Z,100581.00
2023-05-01T14:26:26.124Z,100591.44
2023-05-01T14:28:54.939Z,100583.94
2023-05-01T14:31:27.170Z,100579.66
2023-05-01T14:33:59.099Z,100581.28
2023-05-01T14:36:28.241Z,100570.53
2023-05-01T14:38:59.825Z,100579.66
2023-05-01T14:41:27.850Z,100575.34
2023-05-01T14:43:55.848Z,100566.22
2023-05-01T14:46:31.388Z,100565.69
2023-05-01T14:49:00.750Z,100571.06
2023-05-01T14:51:31.693Z,100570.53
2023-05-01T14:54:01.102Z,100564.88
2023-05-01T14:56:29.078Z,100575.91
2023-05-01T14:58:57.129Z,100576.44
2023-05-01T15:01:24.961Z,100577.22
2023-05-01T15:03:53.407Z,100584.25
2023-05-01T15:06:21.973Z,100585.63
2023-05-01T15:08:49.796Z,100587.22
2023-05-01T15:11:20.859Z,100589.38
2023-05-01T15:13:50.833Z,100592.06
2023-05-01T15:16:18.667Z,100578.34
2023-05-01T15:18:46.541Z,100583.72
2023-05-01T15:21:15.166Z,100588.31
2023-05-01T15:23:45.140Z,100590.72
2023-05-01T15:26:13.366Z,100586.66
2023-05-01T15:28:43.550Z,100600.91
2023-05-01T15:31:11.380Z,100601.72
2023-05-01T15:33:39.317Z,100603.06
2023-05-01T15:36:07.959Z,100601.44
2023-05-01T15:38:35.718Z,100593.91
2023-05-01T15:41:03.518Z,100600.09
2023-05-01T15:43:32.188Z,100608.44
2023-05-01T15:46:01.432Z,100606.53
2023-05-01T15:48:29.313Z,100610.03
2023-05-01T15:50:57.636Z,100622.91
2023-05-01T15:53:25.435Z,100616.19
2023-05-01T15:55:56.833Z,100625.84
2023-05-01T15:58:25.469Z,100615.63
2023-05-01T16:00:53.429Z,100613.78
2023-05-01T16:03:22.747Z,100612.41
2023-05-01T16:05:50.753Z,100620.75
2023-05-01T16:08:19.080Z,100633.91
2023-05-01T16:10:46.970Z,100632.81
2023-05-01T16:13:15.579Z,100639.25
2023-05-01T16:15:43.369Z,100634.66
2023-05-01T16:18:17.237Z,100642.13
2023-05-01T16:20:46.590Z,100645.63
2023-05-01T16:23:16.015Z,100641.56
2023-05-01T16:25:44.017Z,100642.09
2023-05-01T16:28:12.767Z,100655.50
2023-05-01T16:30:42.594Z,100652.56
2023-05-01T16:33:18.419Z,100657.91
2023-05-01T16:35:50.003Z,100655.47
2023-05-01T16:38:18.617Z,100666.91
2023-05-01T16:40:47.964Z,100669.06
2023-05-01T16:43:15.812Z,100661.81
2023-05-01T16:45:43.833Z,100665.59
2023-05-01T16:48:11.718Z,100668.56
2023-05-01T16:50:42.114Z,100675.00
2023-05-01T16:53:11.439Z,100669.66
2023-05-01T16:55:39.242Z,100675.00
2023-05-01T16:58:07.962Z,100674.44
2023-05-01T17:00:35.982Z,100685.50
2023-05-01T17:03:04.036Z,100680.06
2023-05-01T17:05:32.147Z,100671.72
2023-05-01T17:08:00.256Z,100680.31
2023-05-01T17:10:30.020Z,100684.59
2023-05-01T17:12:57.828Z,100680.28
2023-05-01T17:15:25.838Z,100685.09
2023-05-01T17:17:53.743Z,100688.81
2023-05-01T17:20:21.783Z,100691.75
2023-05-01T17:22:49.606Z,100684.25
2023-05-01T17:25:17.521Z,100697.66
2023-05-01T17:27:46.646Z,100690.13
2023-05-01T17:30:14.722Z,100691.97
2023-05-01T17:32:43.119Z,100703.28
2023-05-01T17:35:11.015Z,100703.28
2023-05-01T17:37:40.137Z,100702.47
2023-05-01T17:40:10.979Z,100707.81
2023-05-01T17:42:38.839Z,100707.81
2023-05-01T17:45:10.353Z,100717.75
2023-05-01T17:47:41.502Z,100718.00
2023-05-01T17:50:11.502Z,100709.13
2023-05-01T17:52:39.651Z,100718.25
2023-05-01T17:55:08.323Z,100721.44
2023-05-01T17:57:39.645Z,100716.06
2023-05-01T18:00:13.278Z,100720.63
2023-05-01T18:02:45.353Z,100728.94
2023-05-01T18:05:13.808Z,100728.34
2023-05-01T18:07:42.047Z,100731.56
2023-05-01T18:10:11.850Z,100736.34
2023-05-01T18:12:39.718Z,100747.06
2023-05-01T18:15:09.869Z,100745.16
2023-05-01T18:17:38.249Z,100749.09
2023-05-01T18:20:07.337Z,100754.44
2023-05-01T18:22:35.316Z,100754.66
2023-05-01T18:25:03.612Z,100757.59
2023-05-01T18:27:31.363Z,100763.47
2023-05-01T18:29:59.315Z,100763.97
2023-05-01T18:32:43.286Z,100770.66
2023-05-01T18:35:15.290Z,100772.47
2023-05-01T18:37:44.437Z,100780.75
2023-05-01T18:40:13.141Z,100784.50
2023-05-01T18:42:42.329Z,100778.00
2023-05-01T18:45:11.672Z,100770.38
2023-05-01T18:47:41.162Z,100780.34
2023-05-01T18:50:12.039Z,100779.50
2023-05-01T18:52:41.835Z,100788.88
2023-05-01T18:55:11.960Z,100786.69
2023-05-01T18:57:41.731Z,100797.94
2023-05-01T19:00:14.090Z,100802.47
2023-05-01T19:02:46.681Z,100804.56
2023-05-01T19:05:15.982Z,100799.72
2023-05-01T19:07:44.701Z,100805.09
2023-05-01T19:10:12.659Z,100807.88
2023-05-01T19:12:42.334Z,100809.47
2023-05-01T19:15:11.188Z,100813.22
2023-05-01T19:17:39.938Z,100807.56
2023-05-01T19:20:10.950Z,100812.69
2023-05-01T19:22:38.723Z,100814.47
2023-05-01T19:25:07.281Z,100821.13
2023-05-01T19:27:35.776Z,100830.59
2023-05-01T19:30:04.087Z,100823.63
2023-05-01T19:32:32.922Z,100833.22
2023-05-01T19:35:00.909Z,100835.25
2023-05-01T19:37:30.067Z,100837.88
2023-05-01T19:39:58.362Z,100848.75
2023-05-01T19:42:26.497Z,100851.34
2023-05-01T19:44:54.271Z,100854.50
2023-05-01T19:47:22.189Z,100873.34
2023-05-01T19:49:50.611Z,100867.09
2023-05-01T19:52:19.509Z,100873.16
2023-05-01T19:54:48.709Z,100881.41
2023-05-01T19:57:17.005Z,100885.06
2023-05-01T19:59:44.747Z,100887.38
2023-05-01T20:02:12.555Z,100885.44
2023-05-01T20:04:40.969Z,100889.97
2023-05-01T20:07:08.775Z,100899.22
2023-05-01T20:09:36.535Z,100902.22
2023-05-01T20:12:06.261Z,100900.38
2023-05-01T20:14:34.257Z,100910.16
2023-05-01T20:17:02.290Z,100908.19
2023-05-01T20:19:31.748Z,100910.31
2023-05-01T20:21:59.652Z,100903.34
2023-05-01T20:24:27.616Z,100912.38
2023-05-01T20:26:56.019Z,100911.56
2023-05-01T20:29:25.228Z,100915.91
2023-05-01T20:31:53.178Z,100915.44
2023-05-01T20:34:21.521Z,100920.81
2023-05-01T20:36:49.316Z,100918.47
2023-05-01T20:39:17.155Z,100921.75
2023-05-01T20:41:45.098Z,100918.03
2023-05-01T20:44:12.926Z,100909.91
2023-05-01T20:46:43.569Z,100916.41
2023-05-01T20:49:15.199Z,100916.50
2023-05-01T20:51:44.014Z,100930.81
2023-05-01T20:54:11.850Z,100932.91
2023-05-01T20:56:39.976Z,100935.03
2023-05-01T20:59:08.235Z,100941.63
2023-05-01T21:01:36.555Z,100930.47
2023-05-01T21:04:06.724Z,100941.28
2023-05-01T21:06:35.031Z,100933.16
2023-05-01T21:09:03.500Z,100935.25
2023-05-01T21:11:31.501Z,100941.06
2023-05-01T21:13:59.346Z,100943.97
2023-05-01T21:16:28.827Z,100954.31
2023-05-01T21:18:56.953Z,100952.56
2023-05-01T21:21:27.539Z,100958.97
2023-05-01T21:23:55.417Z,100962.94
2023-05-01T21:26:23.680Z,100965.72
2023-05-01T21:28:51.468Z,100965.13
2023-05-01T21:31:19.314Z,100960.03
2023-05-01T21:33:47.729Z,100958.41
2023-05-01T21:36:18.459Z,100960.25
2023-05-01T21:38:48.449Z,100963.16
2023-05-01T21:41:16.234Z,100961.53
2023-05-01T21:43:44.422Z,100966.31
2023-05-01T21:46:17.393Z,100962.59
2023-05-01T21:48:50.461Z,100966.78
2023-05-01T21:51:19.421Z,100957.59
2023-05-01T21:53:48.734Z,100967.72
2023-05-01T21:56:16.937Z,100963.38
2023-05-01T21:58:44.877Z,100974.56
2023-05-01T22:01:14.307Z,100976.16
2023-05-01T22:03:44.508Z,100976.63
2023-05-01T22:06:12.454Z,100982.81
2023-05-01T22:08:40.750Z,100989.41
2023-05-01T22:11:09.938Z,100990.69
2023-05-01T22:13:37.712Z,100988.47
2023-05-01T22:16:05.987Z,100998.56
2023-05-01T22:18:34.582Z,101010.50
2023-05-01T22:21:03.393Z,101005.16
2023-05-01T22:23:31.363Z,101008.88
2023-05-01T22:26:00.496Z,101005.59
2023-05-01T22:28:29.869Z,101012.22
2023-05-01T22:30:57.743Z,101003.66
2023-05-01T22:33:26.139Z,101011.88
2023-05-01T22:35:53.890Z,101011.75
2023-05-01T22:38:21.651Z,101015.47
2023-05-01T22:40:50.010Z,101013.84
2023-05-01T22:43:17.776Z,101014.88
2023-05-01T22:45:46.948Z,101022.06
2023-05-01T22:48:15.326Z,101027.63
2023-05-01T22:50:43.803Z,101036.69
2023-05-01T22:53:11.832Z,101037.50
2023-05-01T22:55:39.930Z,101041.22
2023-05-01T22:58:07.676Z,101040.19
2023-05-01T23:00:35.439Z,101047.13
2023-05-01T23:03:05.538Z,101043.66
2023-05-01T23:05:33.490Z,101040.41
2023-05-01T23:08:01.347Z,101043.09
2023-05-01T23:10:31.179Z,101045.75
2023-05-01T23:13:01.345Z,101053.75
2023-05-01T23:15:29.156Z,101052.34
2023-05-01T23:17:57.918Z,101053.41
2023-05-01T23:20:27.193Z,101048.06
2023-05-01T23:22:55.032Z,101045.81
2023-05-01T23:25:26.557Z,101049.09
2023-05-01T23:27:56.397Z,101048.50
2023-05-01T23:30:24.354Z,101053.84
2023-05-01T23:32:53.254Z,101051.41
2023-05-01T23:35:24.302Z,101050.59
2023-05-01T23:37:54.242Z,101047.09
2023-05-01T23:40:22.066Z,101052.69
2023-05-01T23:42:50.212Z,101059.03
2023-05-01T23:45:18.692Z,101067.28
2023-05-01T23:47:46.935Z,101066.72
2023-05-01T23:50:14.865Z,101068.56
2023-05-01T23:52:43.018Z,101067.75
2023-05-01T23:55:12.458Z,101073.28
2023-05-01T23:57:40.285Z,101078.06
